createdAt,value
2022-12-05T00:00:24.160Z,9.15
2022-12-05T00:01:36.766Z,9.10
2022-12-05T00:02:38.758Z,9.03
2022-12-05T00:03:40.694Z,9.02
2022-12-05T00:04:42.715Z,9.02
2022-12-05T00:05:44.778Z,9.00
2022-12-05T00:06:47.000Z,8.98
2022-12-05T00:07:48.879Z,8.97
2022-12-05T00:08:50.747Z,8.93
2022-12-05T00:09:52.748Z,8.92
2022-12-05T00:10:54.575Z,8.91
2022-12-05T00:11:57.803Z,8.90
2022-12-05T00:12:59.748Z,8.93
2022-12-05T00:14:02.131Z,8.93
2022-12-05T00:15:04.127Z,8.91
2022-12-05T00:16:07.451Z,8.89
2022-12-05T00:17:09.527Z,8.89
2022-12-05T00:18:11.421Z,8.90
2022-12-05T00:19:15.003Z,8.90
2022-12-05T00:20:16.982Z,8.91
2022-12-05T00:21:20.390Z,8.87
2022-12-05T00:22:22.306Z,8.87
2022-12-05T00:23:24.155Z,8.87
2022-12-05T00:24:26.012Z,8.85
2022-12-05T00:25:28.264Z,8.84
2022-12-05T00:26:30.960Z,8.90
2022-12-05T00:27:34.304Z,8.95
2022-12-05T00:28:36.399Z,8.94
2022-12-05T00:29:38.275Z,8.89
2022-12-05T00:30:40.752Z,8.85
2022-12-05T00:31:42.761Z,8.83
2022-12-05T00:32:44.714Z,8.85
2022-12-05T00:33:47.406Z,8.88
2022-12-05T00:34:49.222Z,8.89
2022-12-05T00:35:51.047Z,8.92
2022-12-05T00:36:52.928Z,8.94
2022-12-05T00:37:55.059Z,8.94
2022-12-05T00:38:59.379Z,8.97
2022-12-05T00:40:01.290Z,8.99
2022-12-05T00:41:04.995Z,8.99
2022-12-05T00:42:06.862Z,8.96
2022-12-05T00:43:08.746Z,8.99
2022-12-05T00:44:11.756Z,8.96
2022-12-05T00:45:13.723Z,8.92
2022-12-05T00:46:17.043Z,8.94
2022-12-05T00:47:18.896Z,8.92
2022-12-05T00:48:21.354Z,8.88
2022-12-05T00:49:23.242Z,8.89
2022-12-05T00:50:25.067Z,8.88
2022-12-05T00:51:28.719Z,8.83
2022-12-05T00:52:30.729Z,8.85
2022-12-05T00:53:33.199Z,8.84
2022-12-05T00:54:35.125Z,8.84
2022-12-05T00:55:37.628Z,8.85
2022-12-05T00:56:39.535Z,8.78
2022-12-05T00:57:41.353Z,8.73
2022-12-05T00:58:43.828Z,8.68
2022-12-05T00:59:46.235Z,8.57
2022-12-05T01:00:48.540Z,8.48
2022-12-05T01:01:51.687Z,8.47
2022-12-05T01:02:53.660Z,8.53
2022-12-05T01:03:58.022Z,8.54
2022-12-05T01:04:59.907Z,8.53
2022-12-05T01:06:01.785Z,8.48
2022-12-05T01:07:03.695Z,8.48
2022-12-05T01:08:05.577Z,8.44
2022-12-05T01:09:07.695Z,8.38
2022-12-05T01:10:09.722Z,8.36
2022-12-05T01:11:12.296Z,8.34
2022-12-05T01:12:14.254Z,8.34
2022-12-05T01:13:16.136Z,8.31
2022-12-05T01:14:19.203Z,8.27
2022-12-05T01:15:21.076Z,8.25
2022-12-05T01:16:24.876Z,8.22
2022-12-05T01:17:27.440Z,8.21
2022-12-05T01:18:29.965Z,8.15
2022-12-05T01:19:32.836Z,8.10
2022-12-05T01:20:34.749Z,8.02
2022-12-05T01:21:36.611Z,8.02
2022-12-05T01:22:38.559Z,8.01
2022-12-05T01:23:40.421Z,7.99
2022-12-05T01:24:42.321Z,7.96
2022-12-05T01:25:45.587Z,7.96
2022-12-05T01:26:47.867Z,7.92
2022-12-05T01:27:49.729Z,7.88
2022-12-05T01:28:52.102Z,7.81
2022-12-05T01:29:54.060Z,7.78
2022-12-05T01:30:55.932Z,7.74
2022-12-05T01:31:57.941Z,7.75
2022-12-05T01:33:00.044Z,7.75
2022-12-05T01:34:03.044Z,7.73
2022-12-05T01:35:06.339Z,7.72
2022-12-05T01:36:10.443Z,7.75
2022-12-05T01:37:12.256Z,7.76
2022-12-05T01:38:14.170Z,7.77
2022-12-05T01:39:17.411Z,7.81
2022-12-05T01:40:19.362Z,7.84
2022-12-05T01:41:23.001Z,7.83
2022-12-05T01:42:26.281Z,7.84
2022-12-05T01:43:28.459Z,7.85
2022-12-05T01:44:30.306Z,7.82
2022-12-05T01:45:41.386Z,7.83
2022-12-05T01:46:48.865Z,7.81
2022-12-05T01:47:50.727Z,7.78
2022-12-05T01:48:53.968Z,7.77
2022-12-05T01:49:56.218Z,7.75
2022-12-05T01:50:59.715Z,7.72
2022-12-05T01:52:04.724Z,7.70
2022-12-05T01:53:06.720Z,7.64
2022-12-05T01:54:09.951Z,7.62
2022-12-05T01:55:13.893Z,7.63
2022-12-05T01:56:16.727Z,7.56
2022-12-05T01:57:18.689Z,7.52
2022-12-05T01:58:21.094Z,7.48
2022-12-05T01:59:23.596Z,7.42
2022-12-05T02:00:25.477Z,7.41
2022-12-05T02:01:27.450Z,7.41
2022-12-05T02:02:30.988Z,7.40
2022-12-05T02:03:32.940Z,7.37
2022-12-05T02:04:38.981Z,7.35
2022-12-05T02:05:41.706Z,7.33
2022-12-05T02:06:43.591Z,7.29
2022-12-05T02:07:46.591Z,7.25
2022-12-05T02:08:48.516Z,7.26
2022-12-05T02:09:51.663Z,7.24
2022-12-05T02:10:55.460Z,7.20
2022-12-05T02:12:02.237Z,7.19
2022-12-05T02:13:14.142Z,7.18
2022-12-05T02:14:18.926Z,7.14
2022-12-05T02:15:29.982Z,7.15
2022-12-05T02:16:43.722Z,7.15
2022-12-05T02:17:46.470Z,7.12
2022-12-05T02:19:10.708Z,7.11
2022-12-05T02:20:19.086Z,7.09
2022-12-05T02:21:21.812Z,7.03
2022-12-05T02:22:53.005Z,7.00
2022-12-05T02:24:09.997Z,6.97
2022-12-05T02:25:19.931Z,6.91
2022-12-05T02:26:34.047Z,6.88
2022-12-05T02:27:41.947Z,6.85
2022-12-05T02:29:04.474Z,6.85
2022-12-05T02:30:06.265Z,6.77
2022-12-05T02:31:11.366Z,6.75
2022-12-05T02:32:28.343Z,6.74
2022-12-05T02:33:33.005Z,6.74
2022-12-05T02:34:48.314Z,6.73
2022-12-05T02:35:50.116Z,6.73
2022-12-05T02:37:04.620Z,6.71
2022-12-05T02:38:18.479Z,6.67
2022-12-05T02:39:29.227Z,6.61
2022-12-05T02:40:35.772Z,6.55
2022-12-05T02:41:57.876Z,6.55
2022-12-05T02:43:08.376Z,6.52
2022-12-05T02:44:29.696Z,6.48
2022-12-05T02:45:34.911Z,6.49
2022-12-05T02:46:39.531Z,6.49
2022-12-05T02:47:44.624Z,6.46
2022-12-05T02:48:47.284Z,6.41
2022-12-05T02:49:51.676Z,6.36
2022-12-05T02:50:54.749Z,6.33
2022-12-05T02:51:58.517Z,6.32
2022-12-05T02:53:04.224Z,6.32
2022-12-05T02:54:09.906Z,6.30
2022-12-05T02:55:13.331Z,6.30
2022-12-05T02:56:15.634Z,6.27
2022-12-05T02:57:18.427Z,6.24
2022-12-05T02:58:23.608Z,6.21
2022-12-05T02:59:25.565Z,6.19
2022-12-05T03:00:27.563Z,6.16
2022-12-05T03:01:31.053Z,6.15
2022-12-05T03:02:34.493Z,6.11
2022-12-05T03:03:36.827Z,6.09
2022-12-05T03:04:38.929Z,6.11
2022-12-05T03:06:03.383Z,6.10
2022-12-05T03:07:07.562Z,6.09
2022-12-05T03:08:13.889Z,6.09
2022-12-05T03:09:20.273Z,6.09
2022-12-05T03:10:24.317Z,6.07
2022-12-05T03:11:29.114Z,6.07
2022-12-05T03:12:39.192Z,6.05
2022-12-05T03:13:45.023Z,6.03
2022-12-05T03:14:49.101Z,5.97
2022-12-05T03:15:53.445Z,5.95
2022-12-05T03:16:58.825Z,5.96
2022-12-05T03:18:06.716Z,5.94
2022-12-05T03:19:13.312Z,5.95
2022-12-05T03:20:34.750Z,5.91
2022-12-05T03:21:39.333Z,5.89
2022-12-05T03:22:41.105Z,5.88
2022-12-05T03:23:46.450Z,5.88
2022-12-05T03:24:49.067Z,5.88
2022-12-05T03:25:50.860Z,5.88
2022-12-05T03:27:13.567Z,5.88
2022-12-05T03:28:30.643Z,5.89
2022-12-05T03:29:46.595Z,5.87
2022-12-05T03:30:49.587Z,5.83
2022-12-05T03:32:04.331Z,5.82
2022-12-05T03:33:11.240Z,5.80
2022-12-05T03:34:30.415Z,5.78
2022-12-05T03:35:50.953Z,5.78
2022-12-05T03:36:53.588Z,5.80
2022-12-05T03:37:57.714Z,5.78
2022-12-05T03:39:11.908Z,5.79
2022-12-05T03:40:28.881Z,5.79
2022-12-05T03:41:37.372Z,5.78
2022-12-05T03:42:41.736Z,5.76
2022-12-05T03:43:53.460Z,5.76
2022-12-05T03:45:12.175Z,5.74
2022-12-05T03:46:24.904Z,5.71
2022-12-05T03:47:26.788Z,5.72
2022-12-05T03:48:33.072Z,5.71
2022-12-05T03:49:41.791Z,5.71
2022-12-05T03:50:45.701Z,5.70
2022-12-05T03:51:56.180Z,5.69
2022-12-05T03:54:32.598Z,5.64
2022-12-05T03:55:36.338Z,5.64
2022-12-05T03:56:44.353Z,5.61
2022-12-05T03:57:46.155Z,5.59
2022-12-05T03:58:52.625Z,5.59
2022-12-05T04:00:08.856Z,5.59
2022-12-05T04:01:12.008Z,5.57
2022-12-05T04:02:21.432Z,5.56
2022-12-05T04:03:44.906Z,5.54
2022-12-05T04:04:56.031Z,5.52
2022-12-05T04:06:00.015Z,5.48
2022-12-05T04:07:04.081Z,5.42
2022-12-05T04:08:14.374Z,5.40
2022-12-05T04:09:19.041Z,5.38
2022-12-05T04:10:24.620Z,5.37
2022-12-05T04:11:27.608Z,5.38
2022-12-05T04:12:31.653Z,5.37
2022-12-05T04:13:42.929Z,5.36
2022-12-05T04:14:47.898Z,5.28
2022-12-05T04:16:10.351Z,5.19
2022-12-05T04:17:18.764Z,5.13
2022-12-05T04:18:23.522Z,5.11
2022-12-05T04:19:58.224Z,5.09
2022-12-05T04:21:21.411Z,5.03
2022-12-05T04:22:25.226Z,5.04
2022-12-05T04:23:28.228Z,5.06
2022-12-05T04:24:50.079Z,5.05
2022-12-05T04:26:13.747Z,5.06
2022-12-05T04:27:21.821Z,5.08
2022-12-05T04:28:37.022Z,5.08
2022-12-05T04:29:44.582Z,5.09
2022-12-05T04:30:49.520Z,5.09
2022-12-05T04:31:53.936Z,5.07
2022-12-05T04:33:01.328Z,5.03
2022-12-05T04:34:06.662Z,4.94
2022-12-05T04:35:12.051Z,4.88
2022-12-05T04:36:20.775Z,4.87
2022-12-05T04:37:24.097Z,4.86
2022-12-05T04:38:28.580Z,4.87
2022-12-05T04:39:39.557Z,4.88
2022-12-05T04:40:45.279Z,4.85
2022-12-05T04:41:50.305Z,4.74
2022-12-05T04:42:53.985Z,4.68
2022-12-05T04:43:58.810Z,4.66
2022-12-05T04:45:03.626Z,4.63
2022-12-05T04:46:08.043Z,4.66
2022-12-05T04:47:11.962Z,4.71
2022-12-05T04:48:16.223Z,4.73
2022-12-05T04:49:21.994Z,4.74
2022-12-05T04:50:24.923Z,4.76
2022-12-05T04:51:30.074Z,4.76
2022-12-05T04:52:33.732Z,4.76
2022-12-05T04:53:36.186Z,4.73
2022-12-05T04:54:38.013Z,4.72
2022-12-05T04:55:41.317Z,4.73
2022-12-05T04:56:44.418Z,4.74
2022-12-05T04:57:52.373Z,4.68
2022-12-05T04:58:54.854Z,4.71
2022-12-05T04:59:57.118Z,4.73
2022-12-05T05:01:12.751Z,4.72
2022-12-05T05:02:17.759Z,4.68
2022-12-05T05:03:24.717Z,4.64
2022-12-05T05:04:29.713Z,4.61
2022-12-05T05:05:32.987Z,4.61
2022-12-05T05:06:37.324Z,4.63
2022-12-05T05:07:50.710Z,4.64
2022-12-05T05:08:54.111Z,4.64
2022-12-05T05:09:56.334Z,4.63
2022-12-05T05:11:07.214Z,4.63
2022-12-05T05:12:11.243Z,4.62
2022-12-05T05:13:16.772Z,4.64
2022-12-05T05:14:18.738Z,4.66
2022-12-05T05:15:20.751Z,4.67
2022-12-05T05:16:26.508Z,4.67
2022-12-05T05:17:28.357Z,4.64
2022-12-05T05:18:30.291Z,4.65
2022-12-05T05:19:32.114Z,4.64
2022-12-05T05:20:33.997Z,4.64
2022-12-05T05:21:37.211Z,4.63
2022-12-05T05:22:39.050Z,4.59
2022-12-05T05:23:40.852Z,4.59
2022-12-05T05:24:42.781Z,4.58
2022-12-05T05:25:44.741Z,4.58
2022-12-05T05:26:46.640Z,4.56
2022-12-05T05:27:49.771Z,4.56
2022-12-05T05:28:52.052Z,4.55
2022-12-05T05:29:53.880Z,4.54
2022-12-05T05:30:55.849Z,4.52
2022-12-05T05:31:57.710Z,4.51
2022-12-05T05:33:00.006Z,4.52
2022-12-05T05:34:07.636Z,4.51
2022-12-05T05:35:12.022Z,4.50
2022-12-05T05:36:14.863Z,4.46
2022-12-05T05:37:16.809Z,4.44
2022-12-05T05:38:18.633Z,4.43
2022-12-05T05:39:20.659Z,4.41
2022-12-05T05:40:22.555Z,4.37
2022-12-05T05:41:26.084Z,4.36
2022-12-05T05:42:28.805Z,4.34
2022-12-05T05:43:30.666Z,4.34
2022-12-05T05:44:32.747Z,4.35
2022-12-05T05:45:34.623Z,4.31
2022-12-05T05:46:36.744Z,4.24
2022-12-05T05:47:39.792Z,4.13
2022-12-05T05:48:41.872Z,4.12
2022-12-05T05:49:43.715Z,4.04
2022-12-05T05:50:45.524Z,3.90
2022-12-05T05:51:47.465Z,3.86
2022-12-05T05:52:50.755Z,3.79
2022-12-05T05:53:52.627Z,3.73
2022-12-05T05:54:55.875Z,3.70
2022-12-05T05:55:57.757Z,3.73
2022-12-05T05:56:59.730Z,3.76
2022-12-05T05:58:01.641Z,3.80
2022-12-05T05:59:03.926Z,3.84
2022-12-05T06:00:06.975Z,3.84
2022-12-05T06:01:10.712Z,3.83
2022-12-05T06:02:12.554Z,3.84
2022-12-05T06:03:14.562Z,3.83
2022-12-05T06:04:16.582Z,3.83
2022-12-05T06:05:18.632Z,3.80
2022-12-05T06:06:21.644Z,3.75
2022-12-05T06:07:23.503Z,3.67
2022-12-05T06:08:25.360Z,3.64
2022-12-05T06:09:27.247Z,3.58
2022-12-05T06:10:30.468Z,3.61
2022-12-05T06:11:32.363Z,3.63
2022-12-05T06:12:34.331Z,3.64
2022-12-05T06:13:36.591Z,3.65
2022-12-05T06:14:38.526Z,3.67
2022-12-05T06:15:40.468Z,3.67
2022-12-05T06:16:43.820Z,3.65
2022-12-05T06:17:45.714Z,3.64
2022-12-05T06:18:47.924Z,3.62
2022-12-05T06:19:49.757Z,3.64
2022-12-05T06:20:53.780Z,3.66
2022-12-05T06:21:55.824Z,3.60
2022-12-05T06:22:57.694Z,3.60
2022-12-05T06:23:59.572Z,3.61
2022-12-05T06:25:01.469Z,3.63
2022-12-05T06:26:04.041Z,3.63
2022-12-05T06:27:06.603Z,3.65
2022-12-05T06:28:08.425Z,3.65
2022-12-05T06:29:10.616Z,3.65
2022-12-05T06:30:12.657Z,3.66
2022-12-05T06:31:16.128Z,3.68
2022-12-05T06:32:18.044Z,3.68
2022-12-05T06:33:20.436Z,3.68
2022-12-05T06:34:22.238Z,3.68
2022-12-05T06:35:24.525Z,3.67
2022-12-05T06:36:27.035Z,3.69
2022-12-05T06:37:29.854Z,3.71
2022-12-05T06:38:31.896Z,3.70
2022-12-05T06:39:34.052Z,3.70
2022-12-05T06:40:35.929Z,3.67
2022-12-05T06:41:37.807Z,3.65
2022-12-05T06:42:40.846Z,3.64
2022-12-05T06:43:42.864Z,3.64
2022-12-05T06:44:45.870Z,3.63
2022-12-05T06:45:47.867Z,3.64
2022-12-05T06:46:49.721Z,3.62
2022-12-05T06:47:52.089Z,3.60
2022-12-05T06:48:54.305Z,3.60
2022-12-05T06:49:57.005Z,3.59
2022-12-05T06:50:59.233Z,3.57
2022-12-05T06:52:01.113Z,3.55
2022-12-05T06:53:02.918Z,3.53
2022-12-05T06:54:04.813Z,3.53
2022-12-05T06:55:06.906Z,3.51
2022-12-05T06:56:14.142Z,3.54
2022-12-05T06:57:16.153Z,3.55
2022-12-05T06:58:18.025Z,3.55
2022-12-05T06:59:19.912Z,3.56
2022-12-05T07:00:40.234Z,3.56
2022-12-05T07:01:42.590Z,3.55
2022-12-05T07:02:44.932Z,3.57
2022-12-05T07:03:49.294Z,3.59
2022-12-05T07:04:51.141Z,3.61
2022-12-05T07:05:53.997Z,3.62
2022-12-05T07:06:56.100Z,3.63
2022-12-05T07:07:58.085Z,3.59
2022-12-05T07:08:59.975Z,3.61
2022-12-05T07:10:01.980Z,3.62
2022-12-05T07:11:03.969Z,3.63
2022-12-05T07:12:05.908Z,3.63
2022-12-05T07:13:10.087Z,3.63
2022-12-05T07:14:24.923Z,3.59
2022-12-05T07:15:37.727Z,3.55
2022-12-05T07:16:39.759Z,3.55
2022-12-05T07:17:41.622Z,3.56
2022-12-05T07:18:43.569Z,3.57
2022-12-05T07:19:47.123Z,3.58
2022-12-05T07:21:12.856Z,3.62
2022-12-05T07:22:16.276Z,3.62
2022-12-05T07:23:18.247Z,3.65
2022-12-05T07:24:20.249Z,3.65
2022-12-05T07:25:23.261Z,3.62
2022-12-05T07:26:25.193Z,3.55
2022-12-05T07:27:28.291Z,3.54
2022-12-05T07:28:30.332Z,3.58
2022-12-05T07:29:32.328Z,3.61
2022-12-05T07:30:34.461Z,3.63
2022-12-05T07:31:37.361Z,3.64
2022-12-05T07:32:39.573Z,3.68
2022-12-05T07:33:41.555Z,3.71
2022-12-05T07:34:43.427Z,3.71
2022-12-05T07:35:45.280Z,3.68
2022-12-05T07:36:47.260Z,3.67
2022-12-05T07:37:49.144Z,3.66
2022-12-05T07:39:00.073Z,3.65
2022-12-05T07:40:02.000Z,3.67
2022-12-05T07:41:12.820Z,3.66
2022-12-05T07:42:15.272Z,3.64
2022-12-05T07:43:18.042Z,3.63
2022-12-05T07:44:19.923Z,3.63
2022-12-05T07:45:22.464Z,3.65
2022-12-05T07:46:25.296Z,3.67
2022-12-05T07:47:31.450Z,3.68
2022-12-05T07:48:34.705Z,3.72
2022-12-05T07:49:37.219Z,3.76
2022-12-05T07:50:39.059Z,3.80
2022-12-05T07:51:41.536Z,3.83
2022-12-05T07:52:43.456Z,3.84
2022-12-05T07:53:46.471Z,3.86
2022-12-05T07:54:48.331Z,3.85
2022-12-05T07:55:50.178Z,3.87
2022-12-05T07:56:52.022Z,3.86
2022-12-05T07:57:54.969Z,3.86
2022-12-05T07:58:56.866Z,3.86
2022-12-05T07:59:58.953Z,3.89
2022-12-05T08:01:11.491Z,3.91
2022-12-05T08:02:13.550Z,3.92
2022-12-05T08:03:15.639Z,3.91
2022-12-05T08:04:17.789Z,3.95
2022-12-05T08:05:19.715Z,3.98
2022-12-05T08:06:25.757Z,4.01
2022-12-05T08:07:27.627Z,4.01
2022-12-05T08:08:29.589Z,4.00
2022-12-05T08:09:31.540Z,4.00
2022-12-05T08:10:34.535Z,4.02
2022-12-05T08:11:36.506Z,4.03
2022-12-05T08:12:38.746Z,4.00
2022-12-05T08:13:41.201Z,3.98
2022-12-05T08:14:43.151Z,3.98
2022-12-05T08:15:44.997Z,3.98
2022-12-05T08:16:47.145Z,4.01
2022-12-05T08:17:49.112Z,4.05
2022-12-05T08:18:55.036Z,4.06
2022-12-05T08:19:57.240Z,4.09
2022-12-05T08:21:02.967Z,4.10
2022-12-05T08:22:04.906Z,4.09
2022-12-05T08:23:06.757Z,4.08
2022-12-05T08:24:08.751Z,4.11
2022-12-05T08:25:10.824Z,4.16
2022-12-05T08:26:13.958Z,4.15
2022-12-05T08:27:15.897Z,4.10
2022-12-05T08:28:17.824Z,4.09
2022-12-05T08:29:21.668Z,4.11
2022-12-05T08:30:23.710Z,4.09
2022-12-05T08:31:29.275Z,4.06
2022-12-05T08:32:31.192Z,4.06
2022-12-05T08:33:33.330Z,4.09
2022-12-05T08:34:35.184Z,4.12
2022-12-05T08:35:39.077Z,4.12
2022-12-05T08:36:41.608Z,4.12
2022-12-05T08:37:43.448Z,4.10
2022-12-05T08:38:45.695Z,4.12
2022-12-05T08:39:48.468Z,4.11
2022-12-05T08:40:50.359Z,4.11
2022-12-05T08:41:52.226Z,4.15
2022-12-05T08:42:54.054Z,4.12
2022-12-05T08:43:56.510Z,4.08
2022-12-05T08:44:58.667Z,4.12
2022-12-05T08:46:01.727Z,4.17
2022-12-05T08:47:03.758Z,4.18
2022-12-05T08:48:05.761Z,4.13
2022-12-05T08:49:07.599Z,4.14
2022-12-05T08:50:09.610Z,4.16
2022-12-05T08:51:12.087Z,4.16
2022-12-05T08:52:14.025Z,4.15
2022-12-05T08:53:16.101Z,4.15
2022-12-05T08:54:17.998Z,4.13
2022-12-05T08:55:19.888Z,4.13
2022-12-05T08:56:26.500Z,4.17
2022-12-05T08:57:29.198Z,4.19
2022-12-05T08:58:31.363Z,4.22
2022-12-05T08:59:33.252Z,4.23
2022-12-05T09:00:35.146Z,4.23
2022-12-05T09:01:39.412Z,4.25
2022-12-05T09:02:42.185Z,4.28
2022-12-05T09:03:47.821Z,4.26
2022-12-05T09:04:54.221Z,4.27
2022-12-05T09:06:04.388Z,4.28
2022-12-05T09:07:08.483Z,4.32
2022-12-05T09:08:10.496Z,4.38
2022-12-05T09:09:12.531Z,4.40
2022-12-05T09:10:14.521Z,4.44
2022-12-05T09:11:18.141Z,4.45
2022-12-05T09:12:20.009Z,4.49
2022-12-05T09:13:23.146Z,4.49
2022-12-05T09:14:25.665Z,4.51
2022-12-05T09:15:27.653Z,4.52
2022-12-05T09:16:38.185Z,4.56
2022-12-05T09:17:40.518Z,4.59
2022-12-05T09:18:44.172Z,4.59
2022-12-05T09:19:46.118Z,4.59
2022-12-05T09:20:48.026Z,4.58
2022-12-05T09:21:49.901Z,4.58
2022-12-05T09:22:52.505Z,4.57
2022-12-05T09:23:54.890Z,4.58
2022-12-05T09:24:56.928Z,4.60
2022-12-05T09:26:05.648Z,4.64
2022-12-05T09:27:07.871Z,4.67
2022-12-05T09:28:09.732Z,4.69
2022-12-05T09:29:16.606Z,4.68
2022-12-05T09:30:19.543Z,4.70
2022-12-05T09:31:27.376Z,4.73
2022-12-05T09:32:29.634Z,4.73
2022-12-05T09:33:32.543Z,4.76
2022-12-05T09:34:35.284Z,4.75
2022-12-05T09:35:39.736Z,4.76
2022-12-05T09:36:41.743Z,4.78
2022-12-05T09:37:43.584Z,4.79
2022-12-05T09:38:45.951Z,4.80
2022-12-05T09:39:47.951Z,4.80
2022-12-05T09:41:01.015Z,4.82
2022-12-05T09:42:10.124Z,4.86
2022-12-05T09:43:34.021Z,4.89
2022-12-05T09:44:37.142Z,4.89
2022-12-05T09:45:44.946Z,4.90
2022-12-05T09:46:55.942Z,4.90
2022-12-05T09:48:05.494Z,4.93
2022-12-05T09:49:09.444Z,4.96
2022-12-05T09:50:34.387Z,4.97
2022-12-05T09:51:40.751Z,4.95
2022-12-05T09:52:46.688Z,4.94
2022-12-05T09:53:48.607Z,4.93
2022-12-05T09:54:52.305Z,4.92
2022-12-05T09:55:59.932Z,4.90
2022-12-05T09:57:03.635Z,4.93
2022-12-05T09:58:06.966Z,4.94
2022-12-05T09:59:11.551Z,4.98
2022-12-05T10:00:13.756Z,5.00
2022-12-05T10:01:34.293Z,4.95
2022-12-05T10:02:48.191Z,4.90
2022-12-05T10:04:08.927Z,4.92
2022-12-05T10:05:16.843Z,4.95
2022-12-05T10:06:29.172Z,4.98
2022-12-05T10:07:46.367Z,5.04
2022-12-05T10:09:06.662Z,5.09
2022-12-05T10:10:20.987Z,5.12
2022-12-05T10:11:46.268Z,5.18
2022-12-05T10:12:48.110Z,5.19
2022-12-05T10:14:08.818Z,5.22
2022-12-05T10:15:31.295Z,5.21
2022-12-05T10:16:35.495Z,5.25
2022-12-05T10:17:38.839Z,5.27
2022-12-05T10:18:53.547Z,5.29
2022-12-05T10:19:58.439Z,5.29
2022-12-05T10:21:23.283Z,5.30
2022-12-05T10:22:37.767Z,5.36
2022-12-05T10:23:57.518Z,5.36
2022-12-05T10:25:02.901Z,5.34
2022-12-05T10:26:06.389Z,5.31
2022-12-05T10:27:09.041Z,5.29
2022-12-05T10:28:23.918Z,5.27
2022-12-05T10:29:29.210Z,5.27
2022-12-05T10:30:33.172Z,5.30
2022-12-05T10:31:37.908Z,5.28
2022-12-05T10:32:57.162Z,5.29
2022-12-05T10:34:03.476Z,5.27
2022-12-05T10:35:16.651Z,5.26
2022-12-05T10:36:18.513Z,5.25
2022-12-05T10:37:23.196Z,5.24
2022-12-05T10:38:31.937Z,5.25
2022-12-05T10:39:33.937Z,5.27
2022-12-05T10:40:36.229Z,5.29
2022-12-05T10:41:38.210Z,5.26
2022-12-05T10:42:40.160Z,5.22
2022-12-05T10:43:43.907Z,5.24
2022-12-05T10:44:46.029Z,5.25
2022-12-05T10:45:48.304Z,5.20
2022-12-05T10:46:50.418Z,5.15
2022-12-05T10:47:56.936Z,5.15
2022-12-05T10:48:59.878Z,5.13
2022-12-05T10:50:22.234Z,5.14
2022-12-05T10:51:28.472Z,5.19
2022-12-05T10:52:33.167Z,5.20
2022-12-05T10:53:35.129Z,5.18
2022-12-05T10:54:42.220Z,5.15
2022-12-05T10:56:06.585Z,5.13
2022-12-05T10:57:25.872Z,5.13
2022-12-05T10:58:29.422Z,5.14
2022-12-05T10:59:47.238Z,5.15
2022-12-05T11:00:51.991Z,5.20
2022-12-05T11:01:56.965Z,5.18
2022-12-05T11:03:01.110Z,5.17
2022-12-05T11:04:18.523Z,5.19
2022-12-05T11:05:31.305Z,5.21
2022-12-05T11:06:33.312Z,5.22
2022-12-05T11:07:44.357Z,5.22
2022-12-05T11:09:07.980Z,5.25
2022-12-05T11:10:28.959Z,5.27
2022-12-05T11:11:33.723Z,5.29
2022-12-05T11:12:41.775Z,5.30
2022-12-05T11:14:19.124Z,5.30
2022-12-05T11:15:24.618Z,5.29
2022-12-05T11:16:29.297Z,5.26
2022-12-05T11:17:33.378Z,5.27
2022-12-05T11:18:35.758Z,5.28
2022-12-05T11:19:38.578Z,5.30
2022-12-05T11:20:40.716Z,5.29
2022-12-05T11:21:43.375Z,5.28
2022-12-05T11:22:48.881Z,5.26
2022-12-05T11:23:50.946Z,5.21
2022-12-05T11:24:52.817Z,5.20
2022-12-05T11:25:55.556Z,5.19
2022-12-05T11:27:01.677Z,5.21
2022-12-05T11:28:18.334Z,5.19
2022-12-05T11:29:28.974Z,5.17
2022-12-05T11:30:30.859Z,5.15
2022-12-05T11:31:32.885Z,5.18
2022-12-05T11:32:35.009Z,5.22
2022-12-05T11:33:37.023Z,5.25
2022-12-05T11:34:43.117Z,5.27
2022-12-05T11:35:46.289Z,5.28
2022-12-05T11:36:54.923Z,5.29
2022-12-05T11:37:59.288Z,5.28
2022-12-05T11:39:01.179Z,5.30
2022-12-05T11:40:03.845Z,5.28
2022-12-05T11:41:20.831Z,5.28
2022-12-05T11:42:28.590Z,5.28
2022-12-05T11:43:30.394Z,5.32
2022-12-05T11:44:35.355Z,5.34
2022-12-05T11:45:46.915Z,5.34
2022-12-05T11:47:07.223Z,5.34
2022-12-05T11:48:27.654Z,5.37
2022-12-05T11:49:35.445Z,5.39
2022-12-05T11:50:52.776Z,5.39
2022-12-05T11:51:57.430Z,5.39
2022-12-05T11:52:59.361Z,5.40
2022-12-05T11:54:04.224Z,5.39
2022-12-05T11:55:26.514Z,5.39
2022-12-05T11:56:57.823Z,5.41
2022-12-05T11:57:59.746Z,5.39
2022-12-05T11:59:20.303Z,5.39
2022-12-05T12:00:34.404Z,5.39
2022-12-05T12:01:36.415Z,5.38
2022-12-05T12:02:48.341Z,5.37
2022-12-05T12:03:53.266Z,5.36
2022-12-05T12:04:58.414Z,5.37
2022-12-05T12:06:09.800Z,5.37
2022-12-05T12:07:23.273Z,5.36
2022-12-05T12:08:26.421Z,5.38
2022-12-05T12:09:38.346Z,5.37
2022-12-05T12:10:43.232Z,5.41
2022-12-05T12:11:45.059Z,5.41
2022-12-05T12:13:04.993Z,5.41
2022-12-05T12:14:16.125Z,5.44
2022-12-05T12:15:39.807Z,5.46
2022-12-05T12:16:53.772Z,5.45
2022-12-05T12:18:04.894Z,5.45
2022-12-05T12:19:06.750Z,5.41
2022-12-05T12:20:11.946Z,5.43
2022-12-05T12:21:19.657Z,5.43
2022-12-05T12:22:21.502Z,5.41
2022-12-05T12:23:26.058Z,5.36
2022-12-05T12:24:35.758Z,5.35
2022-12-05T12:25:49.637Z,5.36
2022-12-05T12:26:56.197Z,5.37
2022-12-05T12:28:04.637Z,5.37
2022-12-05T12:29:12.816Z,5.39
2022-12-05T12:30:22.722Z,5.41
2022-12-05T12:31:35.848Z,5.44
2022-12-05T12:32:56.612Z,5.41
2022-12-05T12:34:16.905Z,5.40
2022-12-05T12:35:24.582Z,5.39
2022-12-05T12:36:27.695Z,5.40
2022-12-05T12:37:41.937Z,5.38
2022-12-05T12:38:51.647Z,5.37
2022-12-05T12:40:12.325Z,5.38
2022-12-05T12:41:19.993Z,5.41
2022-12-05T12:42:27.609Z,5.44
2022-12-05T12:43:53.799Z,5.41
2022-12-05T12:45:07.024Z,5.38
2022-12-05T12:46:20.411Z,5.35
2022-12-05T12:47:22.314Z,5.33
2022-12-05T12:48:24.114Z,5.34
2022-12-05T12:49:26.096Z,5.34
2022-12-05T12:50:32.635Z,5.34
2022-12-05T12:51:34.575Z,5.34
2022-12-05T12:52:59.246Z,5.31
2022-12-05T12:54:06.282Z,5.32
2022-12-05T12:55:15.913Z,5.32
2022-12-05T12:56:17.950Z,5.34
2022-12-05T12:57:34.784Z,5.32
2022-12-05T12:58:36.613Z,5.32
2022-12-05T12:59:38.468Z,5.33
2022-12-05T13:00:46.369Z,5.35
2022-12-05T13:02:02.016Z,5.33
2022-12-05T13:03:07.003Z,5.33
2022-12-05T13:04:14.374Z,5.34
2022-12-05T13:05:25.123Z,5.35
2022-12-05T13:06:34.707Z,5.34
2022-12-05T13:07:52.256Z,5.33
2022-12-05T13:08:57.847Z,5.34
2022-12-05T13:10:25.729Z,5.30
2022-12-05T13:11:29.920Z,5.29
2022-12-05T13:12:35.567Z,5.26
2022-12-05T13:13:40.891Z,5.28
2022-12-05T13:14:49.147Z,5.30
2022-12-05T13:15:53.306Z,5.28
2022-12-05T13:16:55.814Z,5.24
2022-12-05T13:17:57.978Z,5.21
2022-12-05T13:19:00.464Z,5.19
2022-12-05T13:20:02.492Z,5.20
2022-12-05T13:21:07.002Z,5.19
2022-12-05T13:22:09.527Z,5.20
2022-12-05T13:23:17.062Z,5.22
2022-12-05T13:24:21.185Z,5.25
2022-12-05T13:25:26.737Z,5.24
2022-12-05T13:26:28.758Z,5.22
2022-12-05T13:27:31.483Z,5.22
2022-12-05T13:28:42.333Z,5.22
2022-12-05T13:30:08.062Z,5.22
2022-12-05T13:31:17.068Z,5.21
2022-12-05T13:32:42.471Z,5.21
2022-12-05T13:33:45.405Z,5.23
2022-12-05T13:34:50.833Z,5.24
2022-12-05T13:36:28.270Z,5.24
2022-12-05T13:37:49.924Z,5.25
2022-12-05T13:39:15.620Z,5.25
2022-12-05T13:40:49.898Z,5.24
2022-12-05T13:42:13.621Z,5.24
2022-12-05T13:43:19.142Z,5.29
2022-12-05T13:44:29.035Z,5.33
2022-12-05T13:45:31.282Z,5.34
2022-12-05T13:46:35.553Z,5.36
2022-12-05T13:47:56.319Z,5.34
2022-12-05T13:49:06.757Z,5.35
2022-12-05T13:50:15.435Z,5.37
2022-12-05T13:51:26.572Z,5.37
2022-12-05T13:52:31.307Z,5.38
2022-12-05T13:53:42.222Z,5.41
2022-12-05T13:54:46.335Z,5.45
2022-12-05T13:55:55.796Z,5.47
2022-12-05T13:57:01.807Z,5.48
2022-12-05T13:58:22.143Z,5.49
2022-12-05T13:59:42.543Z,5.48
2022-12-05T14:00:45.525Z,5.49
2022-12-05T14:01:55.830Z,5.49
2022-12-05T14:03:05.077Z,5.49
2022-12-05T14:04:22.562Z,5.51
2022-12-05T14:05:28.372Z,5.51
2022-12-05T14:06:39.383Z,5.50
2022-12-05T14:07:57.519Z,5.53
2022-12-05T14:09:03.736Z,5.53
2022-12-05T14:10:05.907Z,5.52
2022-12-05T14:11:11.749Z,5.53
2022-12-05T14:12:13.629Z,5.52
2022-12-05T14:13:16.528Z,5.55
2022-12-05T14:14:36.902Z,5.57
2022-12-05T14:15:43.204Z,5.60
2022-12-05T14:16:45.854Z,5.59
2022-12-05T14:17:47.834Z,5.61
2022-12-05T14:18:59.334Z,5.63
2022-12-05T14:20:23.075Z,5.65
2022-12-05T14:21:42.851Z,5.67
2022-12-05T14:22:44.759Z,5.66
2022-12-05T14:24:05.972Z,5.67
2022-12-05T14:25:11.062Z,5.67
2022-12-05T14:26:18.805Z,5.66
2022-12-05T14:27:28.532Z,5.68
2022-12-05T14:28:56.485Z,5.68
2022-12-05T14:30:04.950Z,5.68
2022-12-05T14:31:12.588Z,5.67
2022-12-05T14:32:25.854Z,5.68
2022-12-05T14:33:28.202Z,5.69
2022-12-05T14:34:31.639Z,5.68
2022-12-05T14:35:53.576Z,5.68
2022-12-05T14:37:03.152Z,5.68
2022-12-05T14:38:06.155Z,5.69
2022-12-05T14:39:30.173Z,5.67
2022-12-05T14:40:32.626Z,5.69
2022-12-05T14:41:36.411Z,5.67